sensor_id;sensor_type;location;lat;lon;timestamp;pressure;altitude;pressure_sealevel;temperature;humidity
47761;BME280;33524;55.434;38.520;2023-04-19T00:01:24;101184.88;;;7.99;52.10
47761;BME280;33524;55.434;38.520;2023-04-19T00:03:54;101181.47;;;7.97;52.37
47761;BME280;33524;55.434;38.520;2023-04-19T00:06:23;101185.66;;;8.01;51.60
47761;BME280;33524;55.434;38.520;2023-04-19T00:08:52;101190.53;;;7.72;53.64
47761;BME280;33524;55.434;38.520;2023-04-19T00:11:20;101190.78;;;7.48;54.34
47761;BME280;33524;55.434;38.520;2023-04-19T00:13:48;101185.28;;;8.26;50.37
47761;BME280;33524;55.434;38.520;2023-04-19T00:16:16;101189.69;;;7.89;52.29
47761;BME280;33524;55.434;38.520;2023-04-19T00:18:44;101192.13;;;7.75;53.76
47761;BME280;33524;55.434;38.520;2023-04-19T00:21:13;101191.47;;;7.71;52.97
47761;BME280;33524;55.434;38.520;2023-04-19T00:23:41;101188.69;;;7.92;52.38
47761;BME280;33524;55.434;38.520;2023-04-19T00:26:09;101192.72;;;8.16;51.05
47761;BME280;33524;55.434;38.520;2023-04-19T00:28:38;101181.78;;;7.91;52.17
47761;BME280;33524;55.434;38.520;2023-04-19T00:31:08;101192.50;;;7.48;54.73
47761;BME280;33524;55.434;38.520;2023-04-19T00:33:36;101189.03;;;8.20;50.68
47761;BME280;33524;55.434;38.520;2023-04-19T00:36:04;101196.81;;;7.68;54.08
47761;BME280;33524;55.434;38.520;2023-04-19T00:38:33;101190.72;;;8.04;51.39
47761;BME280;33524;55.434;38.520;2023-04-19T00:41:01;101181.78;;;8.08;51.12
47761;BME280;33524;55.434;38.520;2023-04-19T00:43:29;101200.56;;;7.62;53.34
47761;BME280;33524;55.434;38.520;2023-04-19T00:45:59;101190.63;;;7.88;52.65
47761;BME280;33524;55.434;38.520;2023-04-19T00:48:28;101195.44;;;7.61;54.06
47761;BME280;33524;55.434;38.520;2023-04-19T00:51:00;101192.19;;;7.92;52.46
47761;BME280;33524;55.434;38.520;2023-04-19T00:53:28;101200.69;;;7.78;52.87
47761;BME280;33524;55.434;38.520;2023-04-19T00:55:56;101200.22;;;7.70;53.20
47761;BME280;33524;55.434;38.520;2023-04-19T00:58:27;101197.06;;;7.63;53.58
47761;BME280;33524;55.434;38.520;2023-04-19T01:00:58;101202.41;;;7.79;52.40
47761;BME280;33524;55.434;38.520;2023-04-19T01:03:26;101207.34;;;7.66;52.86
47761;BME280;33524;55.434;38.520;2023-04-19T01:05:56;101207.88;;;7.56;53.98
47761;BME280;33524;55.434;38.520;2023-04-19T01:08:24;101204.75;;;7.47;54.23
47761;BME280;33524;55.434;38.520;2023-04-19T01:10:53;101209.06;;;7.30;54.22
47761;BME280;33524;55.434;38.520;2023-04-19T01:13:21;101207.88;;;7.18;55.65
47761;BME280;33524;55.434;38.520;2023-04-19T01:15:49;101207.66;;;7.41;54.46
47761;BME280;33524;55.434;38.520;2023-04-19T01:18:20;101209.50;;;7.77;52.04
47761;BME280;33524;55.434;38.520;2023-04-19T01:20:51;101205.38;;;7.15;55.90
47761;BME280;33524;55.434;38.520;2023-04-19T01:23:19;101203.19;;;7.05;56.74
47761;BME280;33524;55.434;38.520;2023-04-19T01:25:48;101209.78;;;7.33;54.74
47761;BME280;33524;55.434;38.520;2023-04-19T01:28:17;101203.81;;;7.86;51.50
47761;BME280;33524;55.434;38.520;2023-04-19T01:30:45;101203.03;;;8.02;51.32
47761;BME280;33524;55.434;38.520;2023-04-19T01:33:13;101202.22;;;7.65;53.29
47761;BME280;33524;55.434;38.520;2023-04-19T01:35:41;101208.16;;;7.31;54.99
47761;BME280;33524;55.434;38.520;2023-04-19T01:38:09;101206.00;;;7.77;53.06
47761;BME280;33524;55.434;38.520;2023-04-19T01:40:39;101210.34;;;7.78;52.92
47761;BME280;33524;55.434;38.520;2023-04-19T01:43:11;101203.50;;;7.93;51.30
47761;BME280;33524;55.434;38.520;2023-04-19T01:45:39;101206.91;;;8.12;50.17
47761;BME280;33524;55.434;38.520;2023-04-19T01:48:08;101202.53;;;8.13;50.12
47761;BME280;33524;55.434;38.520;2023-04-19T01:50:36;101215.22;;;7.85;51.65
47761;BME280;33524;55.434;38.520;2023-04-19T01:53:04;101209.13;;;7.66;53.09
47761;BME280;33524;55.434;38.520;2023-04-19T01:55:32;101211.56;;;7.33;54.68
47761;BME280;33524;55.434;38.520;2023-04-19T01:58:00;101207.66;;;7.22;55.45
47761;BME280;33524;55.434;38.520;2023-04-19T02:00:28;101213.53;;;6.88;57.00
47761;BME280;33524;55.434;38.520;2023-04-19T02:02:57;101215.00;;;7.14;54.82
47761;BME280;33524;55.434;38.520;2023-04-19T02:05:25;101214.00;;;7.17;55.21
47761;BME280;33524;55.434;38.520;2023-04-19T02:07:53;101217.44;;;7.57;53.43
47761;BME280;33524;55.434;38.520;2023-04-19T02:10:21;101214.94;;;7.54;53.47
47761;BME280;33524;55.434;38.520;2023-04-19T02:12:49;101214.59;;;7.61;52.40
47761;BME280;33524;55.434;38.520;2023-04-19T02:15:17;101202.09;;;7.49;53.59
47761;BME280;33524;55.434;38.520;2023-04-19T02:18:05;101205.69;;;7.27;54.80
47761;BME280;33524;55.434;38.520;2023-04-19T02:20:34;101211.62;;;7.31;53.76
47761;BME280;33524;55.434;38.520;2023-04-19T02:23:03;101210.66;;;7.53;53.64
47761;BME280;33524;55.434;38.520;2023-04-19T02:25:30;101215.72;;;7.37;54.22
47761;BME280;33524;55.434;38.520;2023-04-19T02:27:59;101215.50;;;7.60;52.02
47761;BME280;33524;55.434;38.520;2023-04-19T02:30:27;101214.94;;;7.54;53.27
47761;BME280;33524;55.434;38.520;2023-04-19T02:32:55;101222.22;;;7.09;55.52
47761;BME280;33524;55.434;38.520;2023-04-19T02:35:26;101210.50;;;7.18;54.05
47761;BME280;33524;55.434;38.520;2023-04-19T02:37:59;101215.06;;;6.73;57.42
47761;BME280;33524;55.434;38.520;2023-04-19T02:40:28;101217.09;;;6.87;56.35
47761;BME280;33524;55.434;38.520;2023-04-19T02:42:58;101214.34;;;6.70;56.90
47761;BME280;33524;55.434;38.520;2023-04-19T02:45:26;101221.34;;;6.69;57.48
47761;BME280;33524;55.434;38.520;2023-04-19T02:47:54;101222.06;;;6.52;58.61
47761;BME280;33524;55.434;38.520;2023-04-19T02:50:23;101216.72;;;6.55;58.46
47761;BME280;33524;55.434;38.520;2023-04-19T02:52:51;101221.66;;;6.20;59.86
47761;BME280;33524;55.434;38.520;2023-04-19T02:55:19;101226.31;;;6.55;58.34
47761;BME280;33524;55.434;38.520;2023-04-19T02:57:48;101222.31;;;6.46;58.20
47761;BME280;33524;55.434;38.520;2023-04-19T03:00:17;101225.31;;;6.98;55.53
47761;BME280;33524;55.434;38.520;2023-04-19T03:02:48;101226.50;;;6.91;55.98
47761;BME280;33524;55.434;38.520;2023-04-19T03:05:16;101223.91;;;7.10;54.94
47761;BME280;33524;55.434;38.520;2023-04-19T03:07:44;101219.75;;;6.85;56.33
47761;BME280;33524;55.434;38.520;2023-04-19T03:10:13;101228.97;;;6.94;55.47
47761;BME280;33524;55.434;38.520;2023-04-19T03:12:41;101209.66;;;6.37;58.78
47761;BME280;33524;55.434;38.520;2023-04-19T03:15:09;101216.56;;;6.79;56.46
47761;BME280;33524;55.434;38.520;2023-04-19T03:17:38;101213.37;;;6.52;58.06
47761;BME280;33524;55.434;38.520;2023-04-19T03:20:07;101231.06;;;6.86;57.22
47761;BME280;33524;55.434;38.520;2023-04-19T03:22:40;101225.47;;;6.75;57.46
47761;BME280;33524;55.434;38.520;2023-04-19T03:25:08;101230.78;;;6.92;56.72
47761;BME280;33524;55.434;38.520;2023-04-19T03:27:40;101234.47;;;6.67;57.98
47761;BME280;33524;55.434;38.520;2023-04-19T03:30:10;101231.84;;;6.67;57.96
47761;BME280;33524;55.434;38.520;2023-04-19T03:32:39;101232.12;;;6.82;57.59
47761;BME280;33524;55.434;38.520;2023-04-19T03:35:08;101229.59;;;7.20;54.75
47761;BME280;33524;55.434;38.520;2023-04-19T03:37:36;101234.16;;;7.15;56.37
47761;BME280;33524;55.434;38.520;2023-04-19T03:40:05;101235.31;;;7.28;55.53
47761;BME280;33524;55.434;38.520;2023-04-19T03:42:33;101237.78;;;7.12;56.20
47761;BME280;33524;55.434;38.520;2023-04-19T03:45:02;101232.12;;;7.78;52.87
47761;BME280;33524;55.434;38.520;2023-04-19T03:47:31;101230.16;;;7.83;53.49
47761;BME280;33524;55.434;38.520;2023-04-19T03:49:59;101237.66;;;7.72;53.99
47761;BME280;33524;55.434;38.520;2023-04-19T03:52:29;101236.50;;;8.51;51.26
47761;BME280;33524;55.434;38.520;2023-04-19T03:54:58;101235.22;;;8.40;51.49
47761;BME280;33524;55.434;38.520;2023-04-19T03:57:29;101236.09;;;9.09;48.57
47761;BME280;33524;55.434;38.520;2023-04-19T03:59:59;101229.00;;;8.78;49.90
47761;BME280;33524;55.434;38.520;2023-04-19T04:02:32;101238.59;;;9.28;48.71
47761;BME280;33524;55.434;38.520;2023-04-19T04:05:00;101239.50;;;9.76;47.23
47761;BME280;33524;55.434;38.520;2023-04-19T04:07:29;101234.50;;;9.56;47.72
47761;BME280;33524;55.434;38.520;2023-04-19T04:09:57;101234.06;;;9.79;47.21
47761;BME280;33524;55.434;38.520;2023-04-19T04:12:26;101234.59;;;10.77;44.85
47761;BME280;33524;55.434;38.520;2023-04-19T04:14:54;101235.56;;;11.33;43.45
47761;BME280;33524;55.434;38.520;2023-04-19T04:17:23;101236.78;;;11.13;44.22
47761;BME280;33524;55.434;38.520;2023-04-19T04:19:51;101227.38;;;11.79;42.75
47761;BME280;33524;55.434;38.520;2023-04-19T04:22:21;101221.66;;;12.14;42.53
47761;BME280;33524;55.434;38.520;2023-04-19T04:24:50;101226.63;;;12.31;42.31
47761;BME280;33524;55.434;38.520;2023-04-19T04:27:21;101229.16;;;12.20;42.70
47761;BME280;33524;55.434;38.520;2023-04-19T04:29:52;101230.41;;;12.67;41.71
47761;BME280;33524;55.434;38.520;2023-04-19T04:32:26;101231.06;;;12.31;42.67
47761;BME280;33524;55.434;38.520;2023-04-19T04:34:55;101229.28;;;12.31;42.22
47761;BME280;33524;55.434;38.520;2023-04-19T04:37:27;101226.97;;;12.40;42.51
47761;BME280;33524;55.434;38.520;2023-04-19T04:40:00;101234.50;;;12.06;42.69
47761;BME280;33524;55.434;38.520;2023-04-19T04:42:30;101236.16;;;12.07;43.40
47761;BME280;33524;55.434;38.520;2023-04-19T04:45:00;101227.72;;;12.55;42.80
47761;BME280;33524;55.434;38.520;2023-04-19T04:47:33;101228.94;;;12.76;42.28
47761;BME280;33524;55.434;38.520;2023-04-19T04:50:02;101223.00;;;12.72;42.59
47761;BME280;33524;55.434;38.520;2023-04-19T04:52:32;101220.69;;;12.68;42.87
47761;BME280;33524;55.434;38.520;2023-04-19T04:55:00;101231.13;;;12.17;43.14
47761;BME280;33524;55.434;38.520;2023-04-19T04:57:30;101231.38;;;12.92;42.71
47761;BME280;33524;55.434;38.520;2023-04-19T05:00:00;101230.22;;;12.96;40.84
47761;BME280;33524;55.434;38.520;2023-04-19T05:02:32;101233.34;;;13.01;42.87
47761;BME280;33524;55.434;38.520;2023-04-19T05:05:00;101228.03;;;13.27;41.67
47761;BME280;33524;55.434;38.520;2023-04-19T05:07:29;101236.34;;;13.96;40.99
47761;BME280;33524;55.434;38.520;2023-04-19T05:09:58;101227.84;;;14.04;40.98
47761;BME280;33524;55.434;38.520;2023-04-19T05:12:29;101230.97;;;14.44;40.32
47761;BME280;33524;55.434;38.520;2023-04-19T05:14:58;101225.47;;;14.47;40.11
47761;BME280;33524;55.434;38.520;2023-04-19T05:17:26;101229.78;;;15.06;39.22
47761;BME280;33524;55.434;38.520;2023-04-19T05:19:55;101223.06;;;15.25;39.10
47761;BME280;33524;55.434;38.520;2023-04-19T05:22:24;101229.53;;;15.54;37.87
47761;BME280;33524;55.434;38.520;2023-04-19T05:24:52;101236.41;;;15.57;38.80
47761;BME280;33524;55.434;38.520;2023-04-19T05:27:21;101232.16;;;16.21;36.82
47761;BME280;33524;55.434;38.520;2023-04-19T05:29:50;101232.22;;;16.30;36.78
47761;BME280;33524;55.434;38.520;2023-04-19T05:32:19;101231.38;;;16.72;36.36
47761;BME280;33524;55.434;38.520;2023-04-19T05:34:48;101230.47;;;16.41;37.91
47761;BME280;33524;55.434;38.520;2023-04-19T05:37:16;101241.69;;;16.86;36.94
47761;BME280;33524;55.434;38.520;2023-04-19T05:39:44;101231.94;;;16.87;36.99
47761;BME280;33524;55.434;38.520;2023-04-19T05:42:12;101241.28;;;17.12;36.90
47761;BME280;33524;55.434;38.520;2023-04-19T05:44:40;101229.22;;;17.39;36.42
47761;BME280;33524;55.434;38.520;2023-04-19T05:47:09;101232.91;;;17.67;35.92
47761;BME280;33524;55.434;38.520;2023-04-19T05:49:40;101236.66;;;17.54;35.41
47761;BME280;33524;55.434;38.520;2023-04-19T05:52:11;101237.91;;;18.01;35.59
47761;BME280;33524;55.434;38.520;2023-04-19T05:54:40;101243.78;;;17.94;35.80
47761;BME280;33524;55.434;38.520;2023-04-19T05:57:08;101242.72;;;17.76;36.44
47761;BME280;33524;55.434;38.520;2023-04-19T05:59:36;101241.56;;;18.19;36.08
47761;BME280;33524;55.434;38.520;2023-04-19T06:02:05;101246.53;;;18.71;34.87
47761;BME280;33524;55.434;38.520;2023-04-19T06:04:34;101238.59;;;17.93;35.68
47761;BME280;33524;55.434;38.520;2023-04-19T06:07:02;101240.97;;;17.05;36.55
47761;BME280;33524;55.434;38.520;2023-04-19T06:09:39;101244.91;;;18.21;36.39
47761;BME280;33524;55.434;38.520;2023-04-19T06:12:07;101247.66;;;18.88;32.62
47761;BME280;33524;55.434;38.520;2023-04-19T06:14:36;101235.53;;;19.03;35.26
47761;BME280;33524;55.434;38.520;2023-04-19T06:17:04;101248.91;;;18.74;36.06
47761;BME280;33524;55.434;38.520;2023-04-19T06:19:33;101253.28;;;19.50;34.63
47761;BME280;33524;55.434;38.520;2023-04-19T06:22:01;101254.31;;;19.67;34.34
47761;BME280;33524;55.434;38.520;2023-04-19T06:24:29;101243.53;;;19.86;34.14
47761;BME280;33524;55.434;38.520;2023-04-19T06:26:57;101245.00;;;19.99;33.43
47761;BME280;33524;55.434;38.520;2023-04-19T06:29:26;101249.44;;;20.26;33.05
47761;BME280;33524;55.434;38.520;2023-04-19T06:31:54;101248.34;;;20.19;32.86
47761;BME280;33524;55.434;38.520;2023-04-19T06:34:22;101251.41;;;18.95;34.23
47761;BME280;33524;55.434;38.520;2023-04-19T06:36:50;101249.25;;;19.08;35.75
47761;BME280;33524;55.434;38.520;2023-04-19T06:39:18;101255.56;;;17.21;35.38
47761;BME280;33524;55.434;38.520;2023-04-19T06:41:46;101249.78;;;19.12;35.99
47761;BME280;33524;55.434;38.520;2023-04-19T06:44:15;101249.72;;;19.59;34.74
47761;BME280;33524;55.434;38.520;2023-04-19T06:46:44;101251.16;;;20.17;34.15
47761;BME280;33524;55.434;38.520;2023-04-19T06:49:12;101255.97;;;20.49;32.59
47761;BME280;33524;55.434;38.520;2023-04-19T06:51:40;101257.53;;;20.34;33.65
47761;BME280;33524;55.434;38.520;2023-04-19T06:54:08;101247.81;;;21.29;32.49
47761;BME280;33524;55.434;38.520;2023-04-19T06:56:47;101239.44;;;21.67;31.27
47761;BME280;33524;55.434;38.520;2023-04-19T06:59:18;101250.81;;;21.69;31.65
47761;BME280;33524;55.434;38.520;2023-04-19T07:01:48;101236.78;;;21.83;31.55
47761;BME280;33524;55.434;38.520;2023-04-19T07:04:17;101245.28;;;19.78;32.68
47761;BME280;33524;55.434;38.520;2023-04-19T07:06:47;101248.03;;;19.30;34.16
47761;BME280;33524;55.434;38.520;2023-04-19T07:09:16;101240.81;;;21.87;32.26
47761;BME280;33524;55.434;38.520;2023-04-19T07:11:44;101224.78;;;22.45;30.45
47761;BME280;33524;55.434;38.520;2023-04-19T07:14:14;101236.47;;;22.03;32.26
47761;BME280;33524;55.434;38.520;2023-04-19T07:16:44;101225.09;;;22.66;31.03
47761;BME280;33524;55.434;38.520;2023-04-19T07:19:12;101222.78;;;22.22;26.85
47761;BME280;33524;55.434;38.520;2023-04-19T07:21:40;101228.31;;;22.45;31.37
47761;BME280;33524;55.434;38.520;2023-04-19T07:24:09;101223.91;;;22.77;29.63
47761;BME280;33524;55.434;38.520;2023-04-19T07:26:37;101224.34;;;19.83;30.45
47761;BME280;33524;55.434;38.520;2023-04-19T07:29:05;101234.00;;;17.54;38.46
47761;BME280;33524;55.434;38.520;2023-04-19T07:31:33;101226.78;;;22.34;31.84
47761;BME280;33524;55.434;38.520;2023-04-19T07:34:01;101213.28;;;22.92;30.54
47761;BME280;33524;55.434;38.520;2023-04-19T07:36:29;101222.41;;;22.17;30.66
47761;BME280;33524;55.434;38.520;2023-04-19T07:38:58;101227.09;;;22.07;31.08
47761;BME280;33524;55.434;38.520;2023-04-19T07:41:26;101223.91;;;22.20;30.77
47761;BME280;33524;55.434;38.520;2023-04-19T07:43:54;101227.00;;;21.58;31.25
47761;BME280;33524;55.434;38.520;2023-04-19T07:46:22;101233.00;;;22.35;31.01
47761;BME280;33524;55.434;38.520;2023-04-19T07:48:50;101213.59;;;22.33;30.39
47761;BME280;33524;55.434;38.520;2023-04-19T07:51:18;101229.47;;;22.34;30.07
47761;BME280;33524;55.434;38.520;2023-04-19T07:53:47;101222.50;;;22.97;29.84
47761;BME280;33524;55.434;38.520;2023-04-19T07:56:15;101220.78;;;23.13;29.05
47761;BME280;33524;55.434;38.520;2023-04-19T07:58:43;101229.72;;;22.97;29.11
47761;BME280;33524;55.434;38.520;2023-04-19T08:01:20;101215.28;;;23.06;28.73
47761;BME280;33524;55.434;38.520;2023-04-19T08:03:49;101223.59;;;23.28;28.26
47761;BME280;33524;55.434;38.520;2023-04-19T08:06:17;101212.22;;;23.26;27.94
47761;BME280;33524;55.434;38.520;2023-04-19T08:08:48;101222.47;;;23.53;27.43
47761;BME280;33524;55.434;38.520;2023-04-19T08:11:16;101213.94;;;24.04;27.29
47761;BME280;33524;55.434;38.520;2023-04-19T08:13:44;101211.06;;;24.82;26.76
47761;BME280;33524;55.434;38.520;2023-04-19T08:16:30;101206.75;;;25.17;25.68
47761;BME280;33524;55.434;38.520;2023-04-19T08:19:18;101213.00;;;24.73;26.06
47761;BME280;33524;55.434;38.520;2023-04-19T08:21:47;101217.59;;;23.57;27.02
47761;BME280;33524;55.434;38.520;2023-04-19T08:24:15;101206.97;;;24.86;26.96
47761;BME280;33524;55.434;38.520;2023-04-19T08:26:44;101204.31;;;24.10;23.99
47761;BME280;33524;55.434;38.520;2023-04-19T08:29:21;101206.66;;;24.51;27.53
47761;BME280;33524;55.434;38.520;2023-04-19T08:31:49;101208.59;;;25.46;26.37
47761;BME280;33524;55.434;38.520;2023-04-19T08:34:18;101212.81;;;23.67;24.95
47761;BME280;33524;55.434;38.520;2023-04-19T08:36:46;101213.37;;;22.51;21.68
47761;BME280;33524;55.434;38.520;2023-04-19T08:39:33;101206.97;;;22.85;29.24
47761;BME280;33524;55.434;38.520;2023-04-19T08:42:11;101206.28;;;24.16;28.87
47761;BME280;33524;55.434;38.520;2023-04-19T08:45:02;101205.84;;;26.19;26.11
47761;BME280;33524;55.434;38.520;2023-04-19T08:47:39;101207.81;;;26.10;25.41
47761;BME280;33524;55.434;38.520;2023-04-19T08:50:23;101198.19;;;26.51;25.04
47761;BME280;33524;55.434;38.520;2023-04-19T08:53:03;101196.19;;;25.67;26.17
47761;BME280;33524;55.434;38.520;2023-04-19T08:55:51;101194.75;;;26.57;24.62
47761;BME280;33524;55.434;38.520;2023-04-19T08:58:29;101198.78;;;26.74;24.40
47761;BME280;33524;55.434;38.520;2023-04-19T09:01:06;101184.06;;;26.49;24.97
47761;BME280;33524;55.434;38.520;2023-04-19T09:03:45;101191.41;;;27.25;24.11
47761;BME280;33524;55.434;38.520;2023-04-19T09:06:27;101191.50;;;24.58;27.13
47761;BME280;33524;55.434;38.520;2023-04-19T09:09:22;101182.19;;;27.19;24.05
47761;BME280;33524;55.434;38.520;2023-04-19T09:12:15;101185.78;;;26.91;24.41
47761;BME280;33524;55.434;38.520;2023-04-19T09:14:45;101187.28;;;25.30;26.02
47761;BME280;33524;55.434;38.520;2023-04-19T09:17:28;101185.09;;;26.48;22.73
47761;BME280;33524;55.434;38.520;2023-04-19T09:19:57;101175.81;;;27.27;24.96
47761;BME280;33524;55.434;38.520;2023-04-19T09:22:26;101180.72;;;26.18;20.47
47761;BME280;33524;55.434;38.520;2023-04-19T09:24:54;101180.19;;;27.34;24.88
47761;BME280;33524;55.434;38.520;2023-04-19T09:29:56;101178.19;;;26.38;26.58
47761;BME280;33524;55.434;38.520;2023-04-19T09:32:25;101171.34;;;24.84;28.76
47761;BME280;33524;55.434;38.520;2023-04-19T09:34:58;101165.84;;;26.51;25.20
47761;BME280;33524;55.434;38.520;2023-04-19T09:37:29;101165.06;;;22.75;26.64
47761;BME280;33524;55.434;38.520;2023-04-19T09:40:24;101169.13;;;22.55;31.37
47761;BME280;33524;55.434;38.520;2023-04-19T09:42:54;101166.34;;;26.05;27.16
47761;BME280;33524;55.434;38.520;2023-04-19T09:45:26;101163.78;;;25.96;27.57
47761;BME280;33524;55.434;38.520;2023-04-19T09:48:05;101162.69;;;22.89;22.79
47761;BME280;33524;55.434;38.520;2023-04-19T09:50:51;101160.59;;;26.14;27.61
47761;BME280;33524;55.434;38.520;2023-04-19T09:53:28;101149.56;;;28.09;25.14
47761;BME280;33524;55.434;38.520;2023-04-19T09:55:57;101149.37;;;26.67;23.50
47761;BME280;33524;55.434;38.520;2023-04-19T09:58:30;101160.25;;;26.24;26.72
47761;BME280;33524;55.434;38.520;2023-04-19T10:01:17;101157.81;;;27.67;25.15
47761;BME280;33524;55.434;38.520;2023-04-19T10:03:48;101162.13;;;22.13;26.07
47761;BME280;33524;55.434;38.520;2023-04-19T10:06:18;101151.38;;;27.62;25.90
47761;BME280;33524;55.434;38.520;2023-04-19T10:08:52;101150.19;;;26.40;24.55
47761;BME280;33524;55.434;38.520;2023-04-19T10:11:21;101158.91;;;23.14;23.90
47761;BME280;33524;55.434;38.520;2023-04-19T10:13:57;101157.88;;;20.94;20.89
47761;BME280;33524;55.434;38.520;2023-04-19T10:16:29;101162.47;;;20.31;22.74
47761;BME280;33524;55.434;38.520;2023-04-19T10:18:57;101159.00;;;19.59;22.58
47761;BME280;33524;55.434;38.520;2023-04-19T10:21:27;101160.66;;;24.08;30.37
47761;BME280;33524;55.434;38.520;2023-04-19T10:23:57;101150.00;;;24.82;22.93
47761;BME280;33524;55.434;38.520;2023-04-19T10:26:27;101149.09;;;22.10;28.78
47761;BME280;33524;55.434;38.520;2023-04-19T10:28:56;101135.16;;;26.24;27.34
47761;BME280;33524;55.434;38.520;2023-04-19T10:31:25;101143.34;;;25.87;28.61
47761;BME280;33524;55.434;38.520;2023-04-19T10:33:53;101144.41;;;27.19;26.65
47761;BME280;33524;55.434;38.520;2023-04-19T10:36:26;101131.00;;;27.66;24.23
47761;BME280;33524;55.434;38.520;2023-04-19T10:38:55;101137.34;;;21.70;19.51
47761;BME280;33524;55.434;38.520;2023-04-19T10:41:55;101143.38;;;20.00;34.42
47761;BME280;33524;55.434;38.520;2023-04-19T10:44:23;101127.53;;;27.92;25.18
47761;BME280;33524;55.434;38.520;2023-04-19T10:46:51;101134.16;;;24.57;29.46
47761;BME280;33524;55.434;38.520;2023-04-19T10:49:22;101125.78;;;25.91;27.50
47761;BME280;33524;55.434;38.520;2023-04-19T10:51:50;101120.06;;;29.31;23.82
47761;BME280;33524;55.434;38.520;2023-04-19T10:54:32;101121.72;;;29.70;23.19
47761;BME280;33524;55.434;38.520;2023-04-19T10:57:05;101122.78;;;27.19;23.51
47761;BME280;33524;55.434;38.520;2023-04-19T10:59:35;101121.84;;;25.29;26.45
47761;BME280;33524;55.434;38.520;2023-04-19T11:02:25;101122.66;;;23.96;21.90
47761;BME280;33524;55.434;38.520;2023-04-19T11:07:23;101105.50;;;29.32;23.67
47761;BME280;33524;55.434;38.520;2023-04-19T11:09:51;101094.25;;;28.18;22.26
47761;BME280;33524;55.434;38.520;2023-04-19T11:12:20;101097.97;;;27.50;22.35
47761;BME280;33524;55.434;38.520;2023-04-19T11:14:56;101091.31;;;28.26;23.38
47761;BME280;33524;55.434;38.520;2023-04-19T11:17:27;101094.91;;;27.87;21.32
47761;BME280;33524;55.434;38.520;2023-04-19T11:20:06;101102.34;;;24.31;22.73
47761;BME280;33524;55.434;38.520;2023-04-19T11:22:44;101108.59;;;27.04;26.03
47761;BME280;33524;55.434;38.520;2023-04-19T11:25:14;101095.78;;;25.80;19.76
47761;BME280;33524;55.434;38.520;2023-04-19T11:27:45;101096.22;;;24.67;18.77
47761;BME280;33524;55.434;38.520;2023-04-19T11:30:26;101090.06;;;27.42;23.12
47761;BME280;33524;55.434;38.520;2023-04-19T11:32:56;101097.03;;;23.62;20.15
47761;BME280;33524;55.434;38.520;2023-04-19T11:35:26;101089.09;;;24.60;25.15
47761;BME280;33524;55.434;38.520;2023-04-19T11:37:57;101095.34;;;22.75;22.84
47761;BME280;33524;55.434;38.520;2023-04-19T11:40:25;101094.69;;;21.44;22.84
47761;BME280;33524;55.434;38.520;2023-04-19T11:42:55;101089.69;;;20.29;22.88
47761;BME280;33524;55.434;38.520;2023-04-19T11:45:35;101088.94;;;20.45;23.40
47761;BME280;33524;55.434;38.520;2023-04-19T11:48:12;101097.41;;;20.67;23.46
47761;BME280;33524;55.434;38.520;2023-04-19T11:50:44;101080.87;;;27.23;26.31
47761;BME280;33524;55.434;38.520;2023-04-19T11:53:15;101078.00;;;24.10;21.37
47761;BME280;33524;55.434;38.520;2023-04-19T11:55:57;101076.16;;;26.42;27.04
47761;BME280;33524;55.434;38.520;2023-04-19T11:58:30;101082.84;;;26.18;25.09
47761;BME280;33524;55.434;38.520;2023-04-19T12:01:11;101086.38;;;20.96;22.99
47761;BME280;33524;55.434;38.520;2023-04-19T12:03:47;101090.19;;;19.81;31.23
47761;BME280;33524;55.434;38.520;2023-04-19T12:06:21;101088.37;;;21.10;32.08
47761;BME280;33524;55.434;38.520;2023-04-19T12:08:51;101076.78;;;22.74;24.17
47761;BME280;33524;55.434;38.520;2023-04-19T12:11:22;101077.31;;;24.75;28.44
47761;BME280;33524;55.434;38.520;2023-04-19T12:14:08;101066.91;;;23.98;21.66
47761;BME280;33524;55.434;38.520;2023-04-19T12:16:36;101067.09;;;24.41;25.51
47761;BME280;33524;55.434;38.520;2023-04-19T12:19:15;101069.78;;;25.07;20.12
47761;BME280;33524;55.434;38.520;2023-04-19T12:21:47;101067.16;;;24.03;24.10
47761;BME280;33524;55.434;38.520;2023-04-19T12:24:15;101065.59;;;23.94;19.14
47761;BME280;33524;55.434;38.520;2023-04-19T12:26:54;101066.06;;;23.74;19.54
47761;BME280;33524;55.434;38.520;2023-04-19T12:29:25;101052.19;;;24.68;19.92
47761;BME280;33524;55.434;38.520;2023-04-19T12:31:53;101063.22;;;24.73;19.31
47761;BME280;33524;55.434;38.520;2023-04-19T12:34:21;101055.50;;;24.41;18.86
47761;BME280;33524;55.434;38.520;2023-04-19T12:36:50;101056.16;;;24.72;19.31
47761;BME280;33524;55.434;38.520;2023-04-19T12:39:18;101048.75;;;24.15;18.28
47761;BME280;33524;55.434;38.520;2023-04-19T12:41:46;101056.06;;;24.06;19.54
47761;BME280;33524;55.434;38.520;2023-04-19T12:44:18;101040.31;;;24.33;20.58
47761;BME280;33524;55.434;38.520;2023-04-19T12:46:46;101054.28;;;23.84;19.55
47761;BME280;33524;55.434;38.520;2023-04-19T12:49:17;101056.72;;;21.89;21.28
47761;BME280;33524;55.434;38.520;2023-04-19T12:51:47;101050.87;;;20.78;22.32
47761;BME280;33524;55.434;38.520;2023-04-19T12:54:15;101047.34;;;21.85;23.78
47761;BME280;33524;55.434;38.520;2023-04-19T12:56:46;101050.25;;;22.79;21.24
47761;BME280;33524;55.434;38.520;2023-04-19T12:59:14;101039.47;;;24.03;19.85
47761;BME280;33524;55.434;38.520;2023-04-19T13:01:43;101042.62;;;22.99;18.50
47761;BME280;33524;55.434;38.520;2023-04-19T13:04:11;101043.81;;;22.57;19.90
47761;BME280;33524;55.434;38.520;2023-04-19T13:06:41;101041.47;;;21.90;21.51